sensor_id;sensor_type;location;lat;lon;timestamp;P1;durP1;ratioP1;P2;durP2;ratioP2
55118;SDS011;41309;44.772;11.284;2022-10-31T00:01:13;23.17;;;15.57;;
55118;SDS011;41309;44.772;11.284;2022-10-31T00:03:41;27.80;;;16.98;;
55118;SDS011;41309;44.772;11.284;2022-10-31T00:06:07;23.42;;;17.02;;
55118;SDS011;41309;44.772;11.284;2022-10-31T00:08:33;20.80;;;16.33;;
55118;SDS011;41309;44.772;11.284;2022-10-31T00:10:59;30.70;;;16.30;;
55118;SDS011;41309;44.772;11.284;2022-10-31T00:13:25;27.20;;;17.17;;
55118;SDS011;41309;44.772;11.284;2022-10-31T00:15:50;23.35;;;16.05;;
55118;SDS011;41309;44.772;11.284;2022-10-31T00:18:16;28.50;;;17.30;;
55118;SDS011;41309;44.772;11.284;2022-10-31T00:20:42;23.08;;;17.70;;
55118;SDS011;41309;44.772;11.284;2022-10-31T00:23:08;26.92;;;17.08;;
55118;SDS011;41309;44.772;11.284;2022-10-31T00:25:36;25.33;;;17.55;;
55118;SDS011;41309;44.772;11.284;2022-10-31T00:28:04;23.58;;;17.10;;
55118;SDS011;41309;44.772;11.284;2022-10-31T00:30:31;24.15;;;16.60;;
55118;SDS011;41309;44.772;11.284;2022-10-31T00:32:57;25.23;;;17.52;;
55118;SDS011;41309;44.772;11.284;2022-10-31T00:35:23;30.80;;;18.08;;
55118;SDS011;41309;44.772;11.284;2022-10-31T00:37:49;25.98;;;17.17;;
55118;SDS011;41309;44.772;11.284;2022-10-31T00:40:15;26.38;;;17.48;;
55118;SDS011;41309;44.772;11.284;2022-10-31T00:42:41;28.52;;;18.17;;
55118;SDS011;41309;44.772;11.284;2022-10-31T00:45:09;26.17;;;17.45;;
55118;SDS011;41309;44.772;11.284;2022-10-31T00:47:36;27.23;;;17.92;;
55118;SDS011;41309;44.772;11.284;2022-10-31T00:50:03;26.42;;;17.38;;
55118;SDS011;41309;44.772;11.284;2022-10-31T00:52:30;25.15;;;17.65;;
55118;SDS011;41309;44.772;11.284;2022-10-31T00:54:55;27.75;;;18.67;;
55118;SDS011;41309;44.772;11.284;2022-10-31T00:57:21;25.00;;;17.95;;
55118;SDS011;41309;44.772;11.284;2022-10-31T00:59:47;24.52;;;18.52;;
55118;SDS011;41309;44.772;11.284;2022-10-31T01:02:13;27.05;;;18.30;;
55118;SDS011;41309;44.772;11.284;2022-10-31T01:04:38;28.75;;;18.80;;
55118;SDS011;41309;44.772;11.284;2022-10-31T01:07:04;24.50;;;17.73;;
55118;SDS011;41309;44.772;11.284;2022-10-31T01:09:30;26.60;;;17.80;;
55118;SDS011;41309;44.772;11.284;2022-10-31T01:11:56;27.50;;;18.30;;
55118;SDS011;41309;44.772;11.284;2022-10-31T01:14:21;22.63;;;16.83;;
55118;SDS011;41309;44.772;11.284;2022-10-31T01:16:47;30.70;;;17.95;;
55118;SDS011;41309;44.772;11.284;2022-10-31T01:19:13;22.33;;;15.65;;
55118;SDS011;41309;44.772;11.284;2022-10-31T01:21:39;23.02;;;16.20;;
55118;SDS011;41309;44.772;11.284;2022-10-31T01:24:04;28.13;;;17.25;;
55118;SDS011;41309;44.772;11.284;2022-10-31T01:26:31;26.50;;;16.55;;
55118;SDS011;41309;44.772;11.284;2022-10-31T01:29:01;24.35;;;15.40;;
55118;SDS011;41309;44.772;11.284;2022-10-31T01:31:30;21.77;;;15.25;;
55118;SDS011;41309;44.772;11.284;2022-10-31T01:33:57;24.30;;;15.02;;
55118;SDS011;41309;44.772;11.284;2022-10-31T01:36:30;24.38;;;15.23;;
55118;SDS011;41309;44.772;11.284;2022-10-31T01:38:59;20.58;;;13.07;;
55118;SDS011;41309;44.772;11.284;2022-10-31T01:41:28;23.10;;;13.73;;
55118;SDS011;41309;44.772;11.284;2022-10-31T01:43:57;20.25;;;13.90;;
55118;SDS011;41309;44.772;11.284;2022-10-31T01:46:29;27.85;;;15.05;;
55118;SDS011;41309;44.772;11.284;2022-10-31T01:49:05;19.25;;;14.77;;
55118;SDS011;41309;44.772;11.284;2022-10-31T01:51:41;21.85;;;14.85;;
55118;SDS011;41309;44.772;11.284;2022-10-31T01:54:12;24.92;;;14.95;;
55118;SDS011;41309;44.772;11.284;2022-10-31T01:56:41;23.60;;;15.32;;
55118;SDS011;41309;44.772;11.284;2022-10-31T01:59:11;24.27;;;15.50;;
55118;SDS011;41309;44.772;11.284;2022-10-31T02:01:40;20.70;;;15.02;;
55118;SDS011;41309;44.772;11.284;2022-10-31T02:04:06;24.55;;;16.27;;
55118;SDS011;41309;44.772;11.284;2022-10-31T02:06:36;22.17;;;16.48;;
55118;SDS011;41309;44.772;11.284;2022-10-31T02:09:04;28.20;;;16.10;;
55118;SDS011;41309;44.772;11.284;2022-10-31T02:11:31;22.95;;;15.85;;
55118;SDS011;41309;44.772;11.284;2022-10-31T02:14:00;31.30;;;16.80;;
55118;SDS011;41309;44.772;11.284;2022-10-31T02:16:27;23.65;;;16.38;;
55118;SDS011;41309;44.772;11.284;2022-10-31T02:18:53;23.20;;;18.05;;
55118;SDS011;41309;44.772;11.284;2022-10-31T02:21:44;26.15;;;17.25;;
55118;SDS011;41309;44.772;11.284;2022-10-31T02:45:35;24.67;;;18.92;;
55118;SDS011;41309;44.772;11.284;2022-10-31T02:48:11;24.15;;;18.80;;
55118;SDS011;41309;44.772;11.284;2022-10-31T02:50:45;23.75;;;18.38;;
55118;SDS011;41309;44.772;11.284;2022-10-31T02:53:25;26.20;;;18.17;;
55118;SDS011;41309;44.772;11.284;2022-10-31T02:56:13;27.05;;;19.35;;
55118;SDS011;41309;44.772;11.284;2022-10-31T02:58:40;27.27;;;20.10;;
55118;SDS011;41309;44.772;11.284;2022-10-31T03:04:07;27.80;;;20.17;;
55118;SDS011;41309;44.772;11.284;2022-10-31T03:21:20;34.95;;;19.48;;
55118;SDS011;41309;44.772;11.284;2022-10-31T03:23:38;28.90;;;19.67;;
55118;SDS011;41309;44.772;11.284;2022-10-31T03:26:06;26.02;;;18.45;;
55118;SDS011;41309;44.772;11.284;2022-10-31T03:28:36;25.20;;;19.38;;
55118;SDS011;41309;44.772;11.284;2022-10-31T03:31:11;22.55;;;17.40;;
55118;SDS011;41309;44.772;11.284;2022-10-31T03:33:41;29.67;;;19.55;;
55118;SDS011;41309;44.772;11.284;2022-10-31T03:36:10;29.88;;;19.13;;
55118;SDS011;41309;44.772;11.284;2022-10-31T03:38:37;32.00;;;20.05;;
55118;SDS011;41309;44.772;11.284;2022-10-31T03:41:06;27.23;;;18.77;;
55118;SDS011;41309;44.772;11.284;2022-10-31T03:43:38;30.67;;;18.17;;
55118;SDS011;41309;44.772;11.284;2022-10-31T03:46:07;26.80;;;18.63;;
55118;SDS011;41309;44.772;11.284;2022-10-31T03:48:33;27.23;;;18.27;;
55118;SDS011;41309;44.772;11.284;2022-10-31T03:51:03;33.53;;;19.92;;
55118;SDS011;41309;44.772;11.284;2022-10-31T03:53:33;25.27;;;18.88;;
55118;SDS011;41309;44.772;11.284;2022-10-31T03:56:11;31.15;;;20.38;;
55118;SDS011;41309;44.772;11.284;2022-10-31T03:58:48;28.15;;;18.20;;
55118;SDS011;41309;44.772;11.284;2022-10-31T04:01:31;30.55;;;19.67;;
55118;SDS011;41309;44.772;11.284;2022-10-31T04:03:59;28.95;;;18.55;;
55118;SDS011;41309;44.772;11.284;2022-10-31T04:06:26;24.80;;;18.30;;
55118;SDS011;41309;44.772;11.284;2022-10-31T04:08:56;29.45;;;17.65;;
55118;SDS011;41309;44.772;11.284;2022-10-31T04:11:27;29.55;;;18.83;;
55118;SDS011;41309;44.772;11.284;2022-10-31T04:13:56;31.00;;;18.90;;
55118;SDS011;41309;44.772;11.284;2022-10-31T04:16:23;29.25;;;18.67;;
55118;SDS011;41309;44.772;11.284;2022-10-31T04:18:49;24.17;;;17.67;;
55118;SDS011;41309;44.772;11.284;2022-10-31T04:21:16;23.80;;;18.20;;
55118;SDS011;41309;44.772;11.284;2022-10-31T04:23:42;23.67;;;17.42;;
55118;SDS011;41309;44.772;11.284;2022-10-31T04:26:08;28.65;;;17.38;;
55118;SDS011;41309;44.772;11.284;2022-10-31T04:28:36;28.02;;;17.17;;
55118;SDS011;41309;44.772;11.284;2022-10-31T04:31:03;23.08;;;16.60;;
55118;SDS011;41309;44.772;11.284;2022-10-31T04:33:28;24.73;;;16.27;;
55118;SDS011;41309;44.772;11.284;2022-10-31T04:35:54;25.80;;;17.38;;
55118;SDS011;41309;44.772;11.284;2022-10-31T04:38:20;28.75;;;17.85;;
55118;SDS011;41309;44.772;11.284;2022-10-31T04:40:46;26.98;;;18.67;;
55118;SDS011;41309;44.772;11.284;2022-10-31T04:43:13;27.15;;;18.63;;
55118;SDS011;41309;44.772;11.284;2022-10-31T04:45:39;22.75;;;17.20;;
55118;SDS011;41309;44.772;11.284;2022-10-31T04:48:05;25.42;;;17.73;;
55118;SDS011;41309;44.772;11.284;2022-10-31T04:50:31;22.73;;;15.50;;
55118;SDS011;41309;44.772;11.284;2022-10-31T04:52:56;26.80;;;15.55;;
55118;SDS011;41309;44.772;11.284;2022-10-31T04:55:22;20.70;;;14.25;;
55118;SDS011;41309;44.772;11.284;2022-10-31T04:57:49;18.90;;;13.00;;
55118;SDS011;41309;44.772;11.284;2022-10-31T05:00:16;17.13;;;12.20;;
55118;SDS011;41309;44.772;11.284;2022-10-31T05:02:47;18.17;;;11.68;;
55118;SDS011;41309;44.772;11.284;2022-10-31T05:05:15;14.07;;;10.77;;
55118;SDS011;41309;44.772;11.284;2022-10-31T05:07:42;20.73;;;10.27;;
55118;SDS011;41309;44.772;11.284;2022-10-31T05:10:10;16.13;;;10.98;;
55118;SDS011;41309;44.772;11.284;2022-10-31T05:12:37;14.23;;;9.52;;
55118;SDS011;41309;44.772;11.284;2022-10-31T05:15:04;19.77;;;9.48;;
55118;SDS011;41309;44.772;11.284;2022-10-31T05:17:31;13.80;;;9.20;;
55118;SDS011;41309;44.772;11.284;2022-10-31T05:19:57;12.02;;;9.07;;
55118;SDS011;41309;44.772;11.284;2022-10-31T05:22:22;12.50;;;9.07;;
55118;SDS011;41309;44.772;11.284;2022-10-31T05:24:48;10.80;;;7.82;;
55118;SDS011;41309;44.772;11.284;2022-10-31T05:27:14;13.65;;;9.40;;
55118;SDS011;41309;44.772;11.284;2022-10-31T05:29:40;13.20;;;9.05;;
55118;SDS011;41309;44.772;11.284;2022-10-31T05:32:05;15.20;;;8.45;;
55118;SDS011;41309;44.772;11.284;2022-10-31T05:34:31;18.20;;;8.05;;
55118;SDS011;41309;44.772;11.284;2022-10-31T05:36:57;22.70;;;8.90;;
55118;SDS011;41309;44.772;11.284;2022-10-31T05:39:23;17.33;;;8.40;;
55118;SDS011;41309;44.772;11.284;2022-10-31T05:41:48;16.75;;;8.48;;
55118;SDS011;41309;44.772;11.284;2022-10-31T05:44:14;13.75;;;7.22;;
55118;SDS011;41309;44.772;11.284;2022-10-31T05:46:40;15.20;;;7.53;;
55118;SDS011;41309;44.772;11.284;2022-10-31T05:49:06;14.05;;;7.30;;
55118;SDS011;41309;44.772;11.284;2022-10-31T05:51:31;9.40;;;6.78;;
55118;SDS011;41309;44.772;11.284;2022-10-31T05:53:57;13.88;;;7.82;;
55118;SDS011;41309;44.772;11.284;2022-10-31T05:56:23;10.57;;;7.00;;
55118;SDS011;41309;44.772;11.284;2022-10-31T05:58:49;12.50;;;7.15;;
55118;SDS011;41309;44.772;11.284;2022-10-31T06:01:14;12.82;;;6.45;;
55118;SDS011;41309;44.772;11.284;2022-10-31T06:03:40;11.23;;;6.72;;
55118;SDS011;41309;44.772;11.284;2022-10-31T06:06:06;17.13;;;7.90;;
55118;SDS011;41309;44.772;11.284;2022-10-31T06:08:32;12.82;;;6.10;;
55118;SDS011;41309;44.772;11.284;2022-10-31T06:10:58;12.93;;;7.47;;
55118;SDS011;41309;44.772;11.284;2022-10-31T06:13:23;7.63;;;6.43;;
55118;SDS011;41309;44.772;11.284;2022-10-31T06:15:49;15.63;;;6.47;;
55118;SDS011;41309;44.772;11.284;2022-10-31T06:18:15;11.52;;;6.25;;
55118;SDS011;41309;44.772;11.284;2022-10-31T06:20:41;11.10;;;6.15;;
55118;SDS011;41309;44.772;11.284;2022-10-31T06:23:06;8.27;;;5.97;;
55118;SDS011;41309;44.772;11.284;2022-10-31T06:25:32;9.07;;;5.88;;
55118;SDS011;41309;44.772;11.284;2022-10-31T06:27:58;7.03;;;5.05;;
55118;SDS011;41309;44.772;11.284;2022-10-31T06:30:24;10.57;;;5.63;;
55118;SDS011;41309;44.772;11.284;2022-10-31T06:32:50;10.45;;;5.50;;
55118;SDS011;41309;44.772;11.284;2022-10-31T06:35:16;11.68;;;5.18;;
55118;SDS011;41309;44.772;11.284;2022-10-31T06:37:43;9.73;;;5.45;;
55118;SDS011;41309;44.772;11.284;2022-10-31T06:40:16;9.43;;;5.40;;
55118;SDS011;41309;44.772;11.284;2022-10-31T06:42:42;9.00;;;5.45;;
55118;SDS011;41309;44.772;11.284;2022-10-31T06:45:08;8.60;;;5.95;;
55118;SDS011;41309;44.772;11.284;2022-10-31T06:47:33;8.20;;;4.78;;
55118;SDS011;41309;44.772;11.284;2022-10-31T06:49:59;9.85;;;5.32;;
55118;SDS011;41309;44.772;11.284;2022-10-31T06:52:25;9.80;;;5.07;;
55118;SDS011;41309;44.772;11.284;2022-10-31T06:54:51;11.90;;;5.32;;
55118;SDS011;41309;44.772;11.284;2022-10-31T06:57:16;8.85;;;5.38;;
55118;SDS011;41309;44.772;11.284;2022-10-31T06:59:42;8.10;;;4.95;;
55118;SDS011;41309;44.772;11.284;2022-10-31T07:02:11;10.65;;;6.05;;
55118;SDS011;41309;44.772;11.284;2022-10-31T07:04:37;13.65;;;6.30;;
55118;SDS011;41309;44.772;11.284;2022-10-31T07:07:03;13.88;;;6.40;;
55118;SDS011;41309;44.772;11.284;2022-10-31T07:09:29;13.38;;;6.32;;
55118;SDS011;41309;44.772;11.284;2022-10-31T07:11:55;10.65;;;6.13;;
55118;SDS011;41309;44.772;11.284;2022-10-31T07:14:20;9.77;;;6.03;;
55118;SDS011;41309;44.772;11.284;2022-10-31T07:16:50;13.32;;;7.43;;
55118;SDS011;41309;44.772;11.284;2022-10-31T07:19:16;14.40;;;6.50;;
55118;SDS011;41309;44.772;11.284;2022-10-31T07:21:42;18.02;;;7.63;;
55118;SDS011;41309;44.772;11.284;2022-10-31T07:24:08;13.73;;;7.30;;
55118;SDS011;41309;44.772;11.284;2022-10-31T07:26:33;13.45;;;7.22;;
55118;SDS011;41309;44.772;11.284;2022-10-31T07:28:59;15.50;;;6.85;;
55118;SDS011;41309;44.772;11.284;2022-10-31T07:31:25;18.70;;;7.40;;
55118;SDS011;41309;44.772;11.284;2022-10-31T07:33:51;14.40;;;7.45;;
55118;SDS011;41309;44.772;11.284;2022-10-31T07:36:16;17.58;;;7.90;;
55118;SDS011;41309;44.772;11.284;2022-10-31T07:38:42;11.60;;;7.90;;
55118;SDS011;41309;44.772;11.284;2022-10-31T07:41:08;11.65;;;7.80;;
55118;SDS011;41309;44.772;11.284;2022-10-31T07:43:34;15.07;;;7.68;;
55118;SDS011;41309;44.772;11.284;2022-10-31T07:46:00;11.57;;;7.20;;
55118;SDS011;41309;44.772;11.284;2022-10-31T07:48:26;11.70;;;7.55;;
55118;SDS011;41309;44.772;11.284;2022-10-31T07:50:51;14.40;;;8.05;;
55118;SDS011;41309;44.772;11.284;2022-10-31T07:53:17;12.82;;;8.38;;
55118;SDS011;41309;44.772;11.284;2022-10-31T07:55:43;14.45;;;9.32;;
55118;SDS011;41309;44.772;11.284;2022-10-31T07:58:13;12.20;;;7.97;;
55118;SDS011;41309;44.772;11.284;2022-10-31T08:00:40;20.42;;;9.65;;
55118;SDS011;41309;44.772;11.284;2022-10-31T08:03:11;16.92;;;9.48;;
55118;SDS011;41309;44.772;11.284;2022-10-31T08:05:41;16.58;;;10.55;;
55118;SDS011;41309;44.772;11.284;2022-10-31T08:08:07;19.10;;;11.40;;
55118;SDS011;41309;44.772;11.284;2022-10-31T08:10:33;20.70;;;10.48;;
55118;SDS011;41309;44.772;11.284;2022-10-31T08:13:03;23.35;;;12.10;;
55118;SDS011;41309;44.772;11.284;2022-10-31T08:15:31;18.98;;;11.35;;
55118;SDS011;41309;44.772;11.284;2022-10-31T08:17:57;19.63;;;12.75;;
55118;SDS011;41309;44.772;11.284;2022-10-31T08:20:23;27.80;;;12.95;;
55118;SDS011;41309;44.772;11.284;2022-10-31T08:22:52;24.58;;;13.18;;
55118;SDS011;41309;44.772;11.284;2022-10-31T08:25:26;23.50;;;14.35;;
55118;SDS011;41309;44.772;11.284;2022-10-31T08:27:54;24.30;;;14.90;;
55118;SDS011;41309;44.772;11.284;2022-10-31T08:30:21;22.40;;;16.00;;
55118;SDS011;41309;44.772;11.284;2022-10-31T08:33:02;28.60;;;15.57;;
55118;SDS011;41309;44.772;11.284;2022-10-31T08:35:33;22.55;;;15.45;;
55118;SDS011;41309;44.772;11.284;2022-10-31T08:37:59;28.05;;;16.23;;
55118;SDS011;41309;44.772;11.284;2022-10-31T08:40:26;24.95;;;15.52;;
55118;SDS011;41309;44.772;11.284;2022-10-31T08:42:57;23.85;;;16.00;;
55118;SDS011;41309;44.772;11.284;2022-10-31T08:45:23;24.30;;;15.85;;
55118;SDS011;41309;44.772;11.284;2022-10-31T08:47:49;29.90;;;16.98;;
55118;SDS011;41309;44.772;11.284;2022-10-31T08:50:14;30.95;;;17.42;;
55118;SDS011;41309;44.772;11.284;2022-10-31T08:52:40;25.95;;;17.42;;
55118;SDS011;41309;44.772;11.284;2022-10-31T08:55:06;24.55;;;15.60;;
55118;SDS011;41309;44.772;11.284;2022-10-31T08:57:32;29.67;;;17.02;;
55118;SDS011;41309;44.772;11.284;2022-10-31T08:59:58;27.63;;;16.20;;
55118;SDS011;41309;44.772;11.284;2022-10-31T09:02:23;29.23;;;16.13;;
55118;SDS011;41309;44.772;11.284;2022-10-31T09:04:49;26.55;;;14.07;;
55118;SDS011;41309;44.772;11.284;2022-10-31T09:07:15;23.90;;;15.15;;
55118;SDS011;41309;44.772;11.284;2022-10-31T09:09:41;28.15;;;15.32;;
55118;SDS011;41309;44.772;11.284;2022-10-31T09:12:06;27.98;;;15.43;;
55118;SDS011;41309;44.772;11.284;2022-10-31T09:14:32;26.08;;;13.75;;
55118;SDS011;41309;44.772;11.284;2022-10-31T09:16:58;27.02;;;14.65;;
55118;SDS011;41309;44.772;11.284;2022-10-31T09:19:23;19.60;;;12.75;;
55118;SDS011;41309;44.772;11.284;2022-10-31T09:21:51;23.65;;;13.52;;
55118;SDS011;41309;44.772;11.284;2022-10-31T09:24:19;27.08;;;14.50;;
55118;SDS011;41309;44.772;11.284;2022-10-31T09:26:45;32.72;;;14.20;;
55118;SDS011;41309;44.772;11.284;2022-10-31T09:29:10;28.90;;;13.30;;
55118;SDS011;41309;44.772;11.284;2022-10-31T09:31:36;22.83;;;12.43;;
55118;SDS011;41309;44.772;11.284;2022-10-31T09:34:02;27.05;;;13.65;;
55118;SDS011;41309;44.772;11.284;2022-10-31T09:36:28;149.85;;;20.45;;
55118;SDS011;41309;44.772;11.284;2022-10-31T09:38:54;28.58;;;13.20;;
55118;SDS011;41309;44.772;11.284;2022-10-31T09:41:44;31.52;;;14.05;;
55118;SDS011;41309;44.772;11.284;2022-10-31T09:53:27;21.55;;;12.93;;
55118;SDS011;41309;44.772;11.284;2022-10-31T09:56:13;22.95;;;13.52;;
55118;SDS011;41309;44.772;11.284;2022-10-31T09:58:45;31.50;;;14.55;;
55118;SDS011;41309;44.772;11.284;2022-10-31T10:01:23;22.58;;;12.75;;
55118;SDS011;41309;44.772;11.284;2022-10-31T10:03:55;23.95;;;12.82;;
55118;SDS011;41309;44.772;11.284;2022-10-31T10:06:31;22.23;;;12.48;;
55118;SDS011;41309;44.772;11.284;2022-10-31T10:09:01;21.10;;;12.27;;
55118;SDS011;41309;44.772;11.284;2022-10-31T10:25:22;24.50;;;13.18;;
55118;SDS011;41309;44.772;11.284;2022-10-31T10:31:05;26.95;;;12.30;;
55118;SDS011;41309;44.772;11.284;2022-10-31T10:36:18;29.90;;;11.70;;
55118;SDS011;41309;44.772;11.284;2022-10-31T10:41:17;23.83;;;10.77;;
55118;SDS011;41309;44.772;11.284;2022-10-31T10:43:44;23.02;;;10.90;;
55118;SDS011;41309;44.772;11.284;2022-10-31T10:51:37;24.40;;;10.07;;
55118;SDS011;41309;44.772;11.284;2022-10-31T10:54:20;24.30;;;10.73;;
55118;SDS011;41309;44.772;11.284;2022-10-31T10:59:37;22.75;;;9.60;;
55118;SDS011;41309;44.772;11.284;2022-10-31T11:02:03;22.77;;;8.55;;
55118;SDS011;41309;44.772;11.284;2022-10-31T11:04:39;17.40;;;8.10;;
55118;SDS011;41309;44.772;11.284;2022-10-31T11:07:06;21.42;;;8.55;;
55118;SDS011;41309;44.772;11.284;2022-10-31T11:09:36;21.23;;;8.93;;
55118;SDS011;41309;44.772;11.284;2022-10-31T11:12:10;22.08;;;8.23;;
55118;SDS011;41309;44.772;11.284;2022-10-31T11:14:46;20.17;;;8.50;;
55118;SDS011;41309;44.772;11.284;2022-10-31T11:17:20;18.27;;;8.60;;
55118;SDS011;41309;44.772;11.284;2022-10-31T11:22:36;18.65;;;8.25;;
55118;SDS011;41309;44.772;11.284;2022-10-31T11:25:47;21.58;;;7.80;;
55118;SDS011;41309;44.772;11.284;2022-10-31T11:27:59;19.63;;;8.07;;
55118;SDS011;41309;44.772;11.284;2022-10-31T11:30:29;20.85;;;8.13;;
55118;SDS011;41309;44.772;11.284;2022-10-31T11:33:00;15.88;;;6.80;;
55118;SDS011;41309;44.772;11.284;2022-10-31T11:35:26;19.20;;;7.57;;
55118;SDS011;41309;44.772;11.284;2022-10-31T11:37:53;16.50;;;7.22;;
55118;SDS011;41309;44.772;11.284;2022-10-31T11:40:24;16.58;;;6.32;;
55118;SDS011;41309;44.772;11.284;2022-10-31T11:42:51;14.95;;;7.22;;
55118;SDS011;41309;44.772;11.284;2022-10-31T11:47:49;15.73;;;6.95;;
55118;SDS011;41309;44.772;11.284;2022-10-31T11:50:19;21.20;;;8.02;;
55118;SDS011;41309;44.772;11.284;2022-10-31T11:53:16;16.77;;;6.88;;
55118;SDS011;41309;44.772;11.284;2022-10-31T11:55:44;19.25;;;7.60;;
55118;SDS011;41309;44.772;11.284;2022-10-31T11:58:54;19.35;;;7.28;;
55118;SDS011;41309;44.772;11.284;2022-10-31T12:01:03;16.52;;;8.00;;
55118;SDS011;41309;44.772;11.284;2022-10-31T12:03:43;21.52;;;8.15;;
55118;SDS011;41309;44.772;11.284;2022-10-31T12:06:35;16.40;;;7.70;;
55118;SDS011;41309;44.772;11.284;2022-10-31T12:09:17;18.70;;;7.75;;
55118;SDS011;41309;44.772;11.284;2022-10-31T12:14:49;18.08;;;8.05;;
55118;SDS011;41309;44.772;11.284;2022-10-31T12:19:58;13.70;;;7.28;;
55118;SDS011;41309;44.772;11.284;2022-10-31T12:39:19;22.77;;;8.50;;
55118;SDS011;41309;44.772;11.284;2022-10-31T12:49:54;16.27;;;8.98;;
55118;SDS011;41309;44.772;11.284;2022-10-31T12:53:24;28.73;;;9.65;;
55118;SDS011;41309;44.772;11.284;2022-10-31T12:58:53;18.40;;;8.20;;
55118;SDS011;41309;44.772;11.284;2022-10-31T13:07:17;16.65;;;8.02;;
55118;SDS011;41309;44.772;11.284;2022-10-31T13:10:01;20.23;;;8.52;;
55118;SDS011;41309;44.772;11.284;2022-10-31T13:12:34;16.98;;;8.70;;
55118;SDS011;41309;44.772;11.284;2022-10-31T13:15:05;21.42;;;8.50;;
55118;SDS011;41309;44.772;11.284;2022-10-31T13:17:38;19.15;;;8.85;;
55118;SDS011;41309;44.772;11.284;2022-10-31T13:23:04;20.38;;;9.15;;
55118;SDS011;41309;44.772;11.284;2022-10-31T13:26:10;20.45;;;8.65;;
55118;SDS011;41309;44.772;11.284;2022-10-31T13:28:45;20.65;;;10.57;;
55118;SDS011;41309;44.772;11.284;2022-10-31T13:31:41;16.40;;;8.52;;
55118;SDS011;41309;44.772;11.284;2022-10-31T13:34:17;17.00;;;8.43;;
55118;SDS011;41309;44.772;11.284;2022-10-31T13:37:09;13.70;;;8.10;;
55118;SDS011;41309;44.772;11.284;2022-10-31T13:45:15;26.02;;;11.68;;
55118;SDS011;41309;44.772;11.284;2022-10-31T13:47:59;17.08;;;9.82;;
55118;SDS011;41309;44.772;11.284;2022-10-31T13:50:30;28.38;;;12.30;;
55118;SDS011;41309;44.772;11.284;2022-10-31T13:55:42;21.60;;;11.40;;
55118;SDS011;41309;44.772;11.284;2022-10-31T13:58:23;36.63;;;11.95;;
55118;SDS011;41309;44.772;11.284;2022-10-31T14:00:58;26.75;;;11.10;;
55118;SDS011;41309;44.772;11.284;2022-10-31T14:03:29;17.65;;;8.95;;
55118;SDS011;41309;44.772;11.284;2022-10-31T14:05:58;19.50;;;9.55;;
55118;SDS011;41309;44.772;11.284;2022-10-31T14:08:25;22.77;;;9.55;;
55118;SDS011;41309;44.772;11.284;2022-10-31T14:10:51;22.40;;;9.38;;
55118;SDS011;41309;44.772;11.284;2022-10-31T14:19:07;27.50;;;10.77;;
55118;SDS011;41309;44.772;11.284;2022-10-31T14:21:42;19.38;;;9.15;;
55118;SDS011;41309;44.772;11.284;2022-10-31T14:26:53;25.58;;;11.20;;
55118;SDS011;41309;44.772;11.284;2022-10-31T14:29:21;20.23;;;9.38;;
55118;SDS011;41309;44.772;11.284;2022-10-31T14:32:06;24.42;;;10.95;;
55118;SDS011;41309;44.772;11.284;2022-10-31T14:45:32;16.23;;;8.65;;
55118;SDS011;41309;44.772;11.284;2022-10-31T14:51:26;21.90;;;8.40;;
55118;SDS011;41309;44.772;11.284;2022-10-31T14:54:11;27.50;;;8.00;;
55118;SDS011;41309;44.772;11.284;2022-10-31T14:57:12;25.48;;;8.15;;
55118;SDS011;41309;44.772;11.284;2022-10-31T14:59:52;27.13;;;7.95;;
55118;SDS011;41309;44.772;11.284;2022-10-31T15:02:26;16.55;;;6.93;;
55118;SDS011;41309;44.772;11.284;2022-10-31T15:05:23;24.00;;;8.32;;
55118;SDS011;41309;44.772;11.284;2022-10-31T15:07:53;25.77;;;7.18;;
55118;SDS011;41309;44.772;11.284;2022-10-31T15:10:22;33.88;;;8.07;;
55118;SDS011;41309;44.772;11.284;2022-10-31T15:12:51;30.60;;;9.30;;
55118;SDS011;41309;44.772;11.284;2022-10-31T15:15:18;20.95;;;8.15;;
55118;SDS011;41309;44.772;11.284;2022-10-31T15:17:49;34.42;;;8.50;;
55118;SDS011;41309;44.772;11.284;2022-10-31T15:20:27;60.20;;;9.50;;
55118;SDS011;41309;44.772;11.284;2022-10-31T15:22:56;28.77;;;8.52;;
55118;SDS011;41309;44.772;11.284;2022-10-31T15:25:24;24.90;;;7.88;;
55118;SDS011;41309;44.772;11.284;2022-10-31T15:27:57;23.88;;;7.28;;
55118;SDS011;41309;44.772;11.284;2022-10-31T15:30:24;27.27;;;7.80;;
55118;SDS011;41309;44.772;11.284;2022-10-31T15:33:00;120.65;;;13.75;;
55118;SDS011;41309;44.772;11.284;2022-10-31T15:35:27;34.45;;;9.18;;
55118;SDS011;41309;44.772;11.284;2022-10-31T15:37:58;55.10;;;11.32;;
55118;SDS011;41309;44.772;11.284;2022-10-31T15:43:00;25.67;;;8.07;;
55118;SDS011;41309;44.772;11.284;2022-10-31T15:45:29;30.23;;;8.20;;
55118;SDS011;41309;44.772;11.284;2022-10-31T15:48:00;20.50;;;8.07;;
55118;SDS011;41309;44.772;11.284;2022-10-31T15:50:39;21.48;;;8.20;;
55118;SDS011;41309;44.772;11.284;2022-10-31T15:53:20;32.88;;;9.88;;
55118;SDS011;41309;44.772;11.284;2022-10-31T15:55:53;26.40;;;8.80;;
55118;SDS011;41309;44.772;11.284;2022-10-31T15:58:21;21.25;;;8.55;;
55118;SDS011;41309;44.772;11.284;2022-10-31T16:01:04;21.65;;;8.93;;
55118;SDS011;41309;44.772;11.284;2022-10-31T16:03:32;38.97;;;10.40;;
55118;SDS011;41309;44.772;11.284;2022-10-31T16:06:18;33.20;;;10.95;;
55118;SDS011;41309;44.772;11.284;2022-10-31T16:08:46;28.67;;;10.98;;
55118;SDS011;41309;44.772;11.284;2022-10-31T16:11:37;29.15;;;10.32;;
55118;SDS011;41309;44.772;11.284;2022-10-31T16:14:24;42.22;;;10.77;;
55118;SDS011;41309;44.772;11.284;2022-10-31T16:16:56;29.45;;;9.38;;
55118;SDS011;41309;44.772;11.284;2022-10-31T16:19:25;26.38;;;9.38;;
55118;SDS011;41309;44.772;11.284;2022-10-31T16:22:13;23.15;;;8.57;;
55118;SDS011;41309;44.772;11.284;2022-10-31T16:27:19;32.75;;;10.02;;
55118;SDS011;41309;44.772;11.284;2022-10-31T16:35:37;32.15;;;12.55;;
55118;SDS011;41309;44.772;11.284;2022-10-31T16:37:58;30.25;;;11.60;;
55118;SDS011;41309;44.772;11.284;2022-10-31T16:40:23;39.90;;;11.90;;
55118;SDS011;41309;44.772;11.284;2022-10-31T16:42:50;33.63;;;12.90;;
55118;SDS011;41309;44.772;11.284;2022-10-31T16:45:23;46.58;;;13.40;;
55118;SDS011;41309;44.772;11.284;2022-10-31T16:47:50;39.75;;;13.15;;
55118;SDS011;41309;44.772;11.284;2022-10-31T16:50:22;43.30;;;14.05;;
55118;SDS011;41309;44.772;11.284;2022-10-31T16:52:50;39.33;;;14.68;;
55118;SDS011;41309;44.772;11.284;2022-10-31T16:55:16;36.13;;;12.98;;
55118;SDS011;41309;44.772;11.284;2022-10-31T16:57:50;33.85;;;13.10;;
55118;SDS011;41309;44.772;11.284;2022-10-31T17:00:20;46.13;;;14.43;;
55118;SDS011;41309;44.772;11.284;2022-10-31T17:02:48;35.67;;;13.02;;
55118;SDS011;41309;44.772;11.284;2022-10-31T17:05:16;48.05;;;13.93;;
55118;SDS011;41309;44.772;11.284;2022-10-31T17:07:43;36.53;;;11.93;;
55118;SDS011;41309;44.772;11.284;2022-10-31T17:10:10;38.35;;;12.88;;
55118;SDS011;41309;44.772;11.284;2022-10-31T17:12:37;33.38;;;13.55;;
55118;SDS011;41309;44.772;11.284;2022-10-31T17:15:18;33.67;;;13.07;;
55118;SDS011;41309;44.772;11.284;2022-10-31T17:17:46;36.45;;;14.63;;